sensor_id;sensor_type;location;lat;lon;timestamp;pressure;altitude;pressure_sealevel;temperature;humidity
21357;BME280;10836;53.068;18.234;2023-02-28T00:01:10;102666.56;;;-6.76;100.00
21357;BME280;10836;53.068;18.234;2023-02-28T00:03:37;102676.00;;;-6.72;100.00
21357;BME280;10836;53.068;18.234;2023-02-28T00:06:05;102670.06;;;-6.75;100.00
21357;BME280;10836;53.068;18.234;2023-02-28T00:08:33;102672.31;;;-6.82;100.00
21357;BME280;10836;53.068;18.234;2023-02-28T00:11:04;102661.28;;;-6.88;100.00
21357;BME280;10836;53.068;18.234;2023-02-28T00:13:35;102660.72;;;-6.81;100.00
21357;BME280;10836;53.068;18.234;2023-02-28T00:16:06;102665.59;;;-6.75;100.00
21357;BME280;10836;53.068;18.234;2023-02-28T00:18:34;102666.56;;;-6.76;100.00
21357;BME280;10836;53.068;18.234;2023-02-28T00:21:00;102666.03;;;-6.81;100.00
21357;BME280;10836;53.068;18.234;2023-02-28T00:23:28;102665.41;;;-6.84;100.00
21357;BME280;10836;53.068;18.234;2023-02-28T00:25:55;102666.47;;;-6.87;100.00
21357;BME280;10836;53.068;18.234;2023-02-28T00:28:22;102665.84;;;-6.90;100.00
21357;BME280;10836;53.068;18.234;2023-02-28T00:30:49;102666.72;;;-6.90;100.00
21357;BME280;10836;53.068;18.234;2023-02-28T00:33:16;102667.41;;;-6.99;100.00
21357;BME280;10836;53.068;18.234;2023-02-28T00:35:43;102673.44;;;-6.97;100.00
21357;BME280;10836;53.068;18.234;2023-02-28T00:38:13;102660.66;;;-6.92;100.00
21357;BME280;10836;53.068;18.234;2023-02-28T00:40:41;102668.25;;;-6.98;100.00
21357;BME280;10836;53.068;18.234;2023-02-28T00:43:10;102668.25;;;-6.98;100.00
21357;BME280;10836;53.068;18.234;2023-02-28T00:45:37;102658.72;;;-7.14;100.00
21357;BME280;10836;53.068;18.234;2023-02-28T00:48:04;102665.19;;;-7.05;100.00
21357;BME280;10836;53.068;18.234;2023-02-28T00:50:31;102661.28;;;-7.12;100.00
21357;BME280;10836;53.068;18.234;2023-02-28T00:52:58;102668.28;;;-7.11;100.00
21357;BME280;10836;53.068;18.234;2023-02-28T00:55:26;102671.16;;;-7.14;100.00
21357;BME280;10836;53.068;18.234;2023-02-28T00:57:53;102668.94;;;-7.20;100.00
21357;BME280;10836;53.068;18.234;2023-02-28T01:00:20;102674.03;;;-7.17;100.00
21357;BME280;10836;53.068;18.234;2023-02-28T01:02:49;102675.75;;;-7.29;100.00
21357;BME280;10836;53.068;18.234;2023-02-28T01:05:16;102676.16;;;-7.22;100.00
21357;BME280;10836;53.068;18.234;2023-02-28T01:07:44;102669.81;;;-7.32;100.00
21357;BME280;10836;53.068;18.234;2023-02-28T01:10:11;102672.41;;;-7.44;100.00
21357;BME280;10836;53.068;18.234;2023-02-28T01:12:38;102680.34;;;-7.44;100.00
21357;BME280;10836;53.068;18.234;2023-02-28T01:15:10;102680.63;;;-7.35;100.00
21357;BME280;10836;53.068;18.234;2023-02-28T01:17:37;102673.41;;;-7.33;100.00
21357;BME280;10836;53.068;18.234;2023-02-28T01:20:04;102675.31;;;-7.35;100.00
21357;BME280;10836;53.068;18.234;2023-02-28T01:22:32;102675.78;;;-7.42;100.00
21357;BME280;10836;53.068;18.234;2023-02-28T01:24:58;102676.63;;;-7.41;100.00
21357;BME280;10836;53.068;18.234;2023-02-28T01:27:25;102670.69;;;-7.45;100.00
21357;BME280;10836;53.068;18.234;2023-02-28T01:29:53;102665.50;;;-7.59;100.00
21357;BME280;10836;53.068;18.234;2023-02-28T01:32:20;102672.94;;;-7.64;100.00
21357;BME280;10836;53.068;18.234;2023-02-28T01:34:49;102674.94;;;-7.55;100.00
21357;BME280;10836;53.068;18.234;2023-02-28T01:37:16;102669.84;;;-7.58;100.00
21357;BME280;10836;53.068;18.234;2023-02-28T01:39:43;102669.31;;;-7.63;100.00
21357;BME280;10836;53.068;18.234;2023-02-28T01:42:10;102675.16;;;-7.58;100.00
21357;BME280;10836;53.068;18.234;2023-02-28T01:45:15;102669.00;;;-7.58;100.00
21357;BME280;10836;53.068;18.234;2023-02-28T01:47:48;102660.09;;;-7.70;100.00
21357;BME280;10836;53.068;18.234;2023-02-28T01:50:20;102665.22;;;-7.80;100.00
21357;BME280;10836;53.068;18.234;2023-02-28T01:52:50;102669.88;;;-7.83;100.00
21357;BME280;10836;53.068;18.234;2023-02-28T01:55:20;102666.47;;;-7.73;100.00
21357;BME280;10836;53.068;18.234;2023-02-28T01:57:52;102667.09;;;-7.69;100.00
21357;BME280;10836;53.068;18.234;2023-02-28T02:00:23;102664.03;;;-7.76;100.00
21357;BME280;10836;53.068;18.234;2023-02-28T02:02:56;102663.69;;;-7.71;100.00
21357;BME280;10836;53.068;18.234;2023-02-28T02:05:27;102662.44;;;-7.53;100.00
21357;BME280;10836;53.068;18.234;2023-02-28T02:07:57;102660.94;;;-7.57;100.00
21357;BME280;10836;53.068;18.234;2023-02-28T02:10:31;102655.22;;;-7.76;100.00
21357;BME280;10836;53.068;18.234;2023-02-28T02:13:08;102657.78;;;-7.87;100.00
21357;BME280;10836;53.068;18.234;2023-02-28T02:18:32;102657.16;;;-7.91;100.00
21357;BME280;10836;53.068;18.234;2023-02-28T02:35:12;102666.28;;;-7.82;100.00
21357;BME280;10836;53.068;18.234;2023-02-28T02:40:22;102670.72;;;-7.95;100.00
21357;BME280;10836;53.068;18.234;2023-02-28T02:43:02;102669.56;;;-7.91;100.00
21357;BME280;10836;53.068;18.234;2023-02-28T02:45:37;102672.41;;;-7.94;100.00
21357;BME280;10836;53.068;18.234;2023-02-28T02:48:09;102677.06;;;-7.98;100.00
21357;BME280;10836;53.068;18.234;2023-02-28T02:50:43;102668.69;;;-8.05;100.00
21357;BME280;10836;53.068;18.234;2023-02-28T02:53:14;102672.41;;;-8.07;100.00
21357;BME280;10836;53.068;18.234;2023-02-28T02:55:46;102666.03;;;-8.05;100.00
21357;BME280;10836;53.068;18.234;2023-02-28T02:58:16;102672.59;;;-8.10;100.00
21357;BME280;10836;53.068;18.234;2023-02-28T03:00:49;102666.66;;;-8.14;100.00
21357;BME280;10836;53.068;18.234;2023-02-28T03:03:18;102667.31;;;-8.10;100.00
21357;BME280;10836;53.068;18.234;2023-02-28T03:05:49;102671.97;;;-8.14;100.00
21357;BME280;10836;53.068;18.234;2023-02-28T03:08:16;102666.88;;;-8.17;100.00
21357;BME280;10836;53.068;18.234;2023-02-28T03:10:48;102667.09;;;-8.07;100.00
21357;BME280;10836;53.068;18.234;2023-02-28T03:13:37;102675.50;;;-8.00;100.00
21357;BME280;10836;53.068;18.234;2023-02-28T03:18:54;102669.84;;;-8.09;100.00
21357;BME280;10836;53.068;18.234;2023-02-28T03:24:19;102667.31;;;-7.97;100.00
21357;BME280;10836;53.068;18.234;2023-02-28T03:26:54;102672.84;;;-8.00;100.00
21357;BME280;10836;53.068;18.234;2023-02-28T03:29:35;102674.53;;;-7.99;100.00
21357;BME280;10836;53.068;18.234;2023-02-28T03:32:18;102676.22;;;-7.98;100.00
21357;BME280;10836;53.068;18.234;2023-02-28T03:35:19;102669.44;;;-8.02;100.00
21357;BME280;10836;53.068;18.234;2023-02-28T03:38:22;102682.34;;;-8.11;100.00
21357;BME280;10836;53.068;18.234;2023-02-28T03:40:58;102677.25;;;-8.14;100.00
21357;BME280;10836;53.068;18.234;2023-02-28T03:43:30;102683.19;;;-8.23;100.00
21357;BME280;10836;53.068;18.234;2023-02-28T03:46:01;102688.06;;;-8.29;100.00
21357;BME280;10836;53.068;18.234;2023-02-28T03:48:47;102690.22;;;-8.34;100.00
21357;BME280;10836;53.068;18.234;2023-02-28T03:51:19;102683.72;;;-8.43;100.00
21357;BME280;10836;53.068;18.234;2023-02-28T03:53:54;102689.97;;;-8.31;100.00
21357;BME280;10836;53.068;18.234;2023-02-28T03:56:38;102691.25;;;-8.37;100.00
21357;BME280;10836;53.068;18.234;2023-02-28T03:59:15;102685.22;;;-8.39;100.00
21357;BME280;10836;53.068;18.234;2023-02-28T04:01:47;102694.66;;;-8.35;100.00
21357;BME280;10836;53.068;18.234;2023-02-28T04:04:15;102687.66;;;-8.36;100.00
21357;BME280;10836;53.068;18.234;2023-02-28T04:06:44;102689.97;;;-8.31;100.00
21357;BME280;10836;53.068;18.234;2023-02-28T04:09:13;102692.53;;;-8.30;100.00
21357;BME280;10836;53.068;18.234;2023-02-28T04:11:42;102693.38;;;-8.42;100.00
21357;BME280;10836;53.068;18.234;2023-02-28T04:14:11;102698.31;;;-8.50;100.00
21357;BME280;10836;53.068;18.234;2023-02-28T04:16:41;102696.72;;;-8.53;100.00
21357;BME280;10836;53.068;18.234;2023-02-28T04:19:10;102696.06;;;-8.56;100.00
21357;BME280;10836;53.068;18.234;2023-02-28T04:21:48;102697.31;;;-8.62;100.00
21357;BME280;10836;53.068;18.234;2023-02-28T04:24:19;102717.06;;;-8.53;100.00
21357;BME280;10836;53.068;18.234;2023-02-28T04:26:49;102709.66;;;-8.48;100.00
21357;BME280;10836;53.068;18.234;2023-02-28T04:31:48;102699.84;;;-8.60;100.00
21357;BME280;10836;53.068;18.234;2023-02-28T04:34:16;102723.16;;;-8.65;100.00
21357;BME280;10836;53.068;18.234;2023-02-28T04:36:43;102717.41;;;-8.72;100.00
21357;BME280;10836;53.068;18.234;2023-02-28T04:39:10;102707.59;;;-8.70;100.00
21357;BME280;10836;53.068;18.234;2023-02-28T04:41:37;102711.06;;;-8.69;100.00
21357;BME280;10836;53.068;18.234;2023-02-28T04:44:04;102715.94;;;-8.63;100.00
21357;BME280;10836;53.068;18.234;2023-02-28T04:46:31;102711.59;;;-8.64;100.00
21357;BME280;10836;53.068;18.234;2023-02-28T04:48:58;102713.38;;;-8.78;100.00
21357;BME280;10836;53.068;18.234;2023-02-28T04:51:25;102720.25;;;-8.75;100.00
21357;BME280;10836;53.068;18.234;2023-02-28T04:53:53;102725.28;;;-8.70;100.00
21357;BME280;10836;53.068;18.234;2023-02-28T04:56:20;102709.41;;;-8.58;100.00
21357;BME280;10836;53.068;18.234;2023-02-28T04:58:48;102714.97;;;-8.48;100.00
21357;BME280;10836;53.068;18.234;2023-02-28T05:01:24;102711.97;;;-8.56;100.00
21357;BME280;10836;53.068;18.234;2023-02-28T05:03:54;102718.28;;;-8.71;100.00
21357;BME280;10836;53.068;18.234;2023-02-28T05:06:23;102724.84;;;-8.64;100.00
21357;BME280;10836;53.068;18.234;2023-02-28T05:08:51;102721.47;;;-8.66;100.00
21357;BME280;10836;53.068;18.234;2023-02-28T05:11:31;102721.34;;;-8.65;100.00
21357;BME280;10836;53.068;18.234;2023-02-28T05:14:19;102713.09;;;-8.60;100.00
21357;BME280;10836;53.068;18.234;2023-02-28T05:16:46;102718.06;;;-8.68;100.00
21357;BME280;10836;53.068;18.234;2023-02-28T05:19:13;102721.88;;;-8.73;100.00
21357;BME280;10836;53.068;18.234;2023-02-28T05:21:48;102728.44;;;-8.65;100.00
21357;BME280;10836;53.068;18.234;2023-02-28T05:24:16;102726.97;;;-8.69;100.00
21357;BME280;10836;53.068;18.234;2023-02-28T05:26:51;102720.56;;;-8.80;100.00
21357;BME280;10836;53.068;18.234;2023-02-28T05:29:18;102718.41;;;-8.87;100.00
21357;BME280;10836;53.068;18.234;2023-02-28T05:31:46;102723.16;;;-8.65;100.00
21357;BME280;10836;53.068;18.234;2023-02-28T05:34:13;102716.03;;;-8.65;100.00
21357;BME280;10836;53.068;18.234;2023-02-28T05:36:42;102718.66;;;-8.78;100.00
21357;BME280;10836;53.068;18.234;2023-02-28T05:39:09;102720.38;;;-8.91;100.00
21357;BME280;10836;53.068;18.234;2023-02-28T05:41:41;102718.88;;;-8.95;100.00
21357;BME280;10836;53.068;18.234;2023-02-28T05:44:09;102718.09;;;-8.83;100.00
21357;BME280;10836;53.068;18.234;2023-02-28T05:46:36;102728.53;;;-8.94;100.00
21357;BME280;10836;53.068;18.234;2023-02-28T05:49:04;102731.91;;;-8.92;100.00
21357;BME280;10836;53.068;18.234;2023-02-28T05:51:31;102729.28;;;-8.92;100.00
21357;BME280;10836;53.068;18.234;2023-02-28T05:54:00;102734.94;;;-8.84;100.00
21357;BME280;10836;53.068;18.234;2023-02-28T05:56:27;102722.16;;;-8.50;100.00
21357;BME280;10836;53.068;18.234;2023-02-28T05:58:55;102736.59;;;-8.42;100.00
21357;BME280;10836;53.068;18.234;2023-02-28T06:03:52;102736.06;;;-8.74;100.00
21357;BME280;10836;53.068;18.234;2023-02-28T06:06:19;102744.84;;;-8.73;100.00
21357;BME280;10836;53.068;18.234;2023-02-28T06:08:46;102744.84;;;-8.46;100.00
21357;BME280;10836;53.068;18.234;2023-02-28T06:11:13;102741.56;;;-7.97;100.00
21357;BME280;10836;53.068;18.234;2023-02-28T06:13:40;102740.31;;;-7.54;100.00
21357;BME280;10836;53.068;18.234;2023-02-28T06:16:10;102746.88;;;-6.72;100.00
21357;BME280;10836;53.068;18.234;2023-02-28T06:18:38;102743.97;;;-5.97;100.00
21357;BME280;10836;53.068;18.234;2023-02-28T06:21:05;102742.81;;;-5.71;100.00
21357;BME280;10836;53.068;18.234;2023-02-28T06:23:32;102746.97;;;-4.34;100.00
21357;BME280;10836;53.068;18.234;2023-02-28T06:25:59;102746.88;;;-2.89;100.00
21357;BME280;10836;53.068;18.234;2023-02-28T06:28:26;102750.69;;;-1.74;99.31
21357;BME280;10836;53.068;18.234;2023-02-28T06:30:53;102739.50;;;-1.60;92.09
21357;BME280;10836;53.068;18.234;2023-02-28T06:33:20;102742.16;;;-1.60;88.01
21357;BME280;10836;53.068;18.234;2023-02-28T06:35:50;102743.34;;;-2.30;90.19
21357;BME280;10836;53.068;18.234;2023-02-28T06:38:17;102740.91;;;-1.56;90.35
21357;BME280;10836;53.068;18.234;2023-02-28T06:40:44;102752.81;;;-0.67;84.87
21357;BME280;10836;53.068;18.234;2023-02-28T06:43:11;102755.72;;;-0.15;81.18
21357;BME280;10836;53.068;18.234;2023-02-28T06:45:43;102749.41;;;1.16;76.76
21357;BME280;10836;53.068;18.234;2023-02-28T06:48:10;102747.78;;;2.22;73.04
21357;BME280;10836;53.068;18.234;2023-02-28T06:50:37;102756.13;;;2.92;66.24
21357;BME280;10836;53.068;18.234;2023-02-28T06:53:04;102756.97;;;3.31;63.68
21357;BME280;10836;53.068;18.234;2023-02-28T06:55:31;102751.56;;;3.31;64.04
21357;BME280;10836;53.068;18.234;2023-02-28T06:57:58;102763.75;;;4.12;62.19
21357;BME280;10836;53.068;18.234;2023-02-28T07:00:25;102764.41;;;5.19;55.22
21357;BME280;10836;53.068;18.234;2023-02-28T07:02:52;102765.63;;;4.49;53.60
21357;BME280;10836;53.068;18.234;2023-02-28T07:05:21;102768.84;;;5.26;54.41
21357;BME280;10836;53.068;18.234;2023-02-28T07:07:48;102774.16;;;5.85;54.99
21357;BME280;10836;53.068;18.234;2023-02-28T07:10:15;102781.13;;;8.43;47.89
21357;BME280;10836;53.068;18.234;2023-02-28T07:12:46;102775.03;;;8.80;44.22
21357;BME280;10836;53.068;18.234;2023-02-28T07:15:13;102768.28;;;10.05;42.77
21357;BME280;10836;53.068;18.234;2023-02-28T07:17:40;102767.25;;;10.38;39.27
21357;BME280;10836;53.068;18.234;2023-02-28T07:20:07;102773.13;;;9.07;42.24
21357;BME280;10836;53.068;18.234;2023-02-28T07:22:35;102781.13;;;8.89;43.76
21357;BME280;10836;53.068;18.234;2023-02-28T07:25:02;102773.41;;;10.26;42.22
21357;BME280;10836;53.068;18.234;2023-02-28T07:27:29;102768.75;;;10.58;40.89
21357;BME280;10836;53.068;18.234;2023-02-28T07:29:56;102766.69;;;10.29;41.23
21357;BME280;10836;53.068;18.234;2023-02-28T07:32:24;102766.09;;;11.31;39.33
21357;BME280;10836;53.068;18.234;2023-02-28T07:34:51;102764.63;;;10.18;40.21
21357;BME280;10836;53.068;18.234;2023-02-28T07:37:18;102777.13;;;10.63;39.22
21357;BME280;10836;53.068;18.234;2023-02-28T07:39:45;102768.13;;;10.56;40.42
21357;BME280;10836;53.068;18.234;2023-02-28T07:42:12;102770.03;;;10.81;39.71
21357;BME280;10836;53.068;18.234;2023-02-28T07:44:39;102769.50;;;10.90;40.67
21357;BME280;10836;53.068;18.234;2023-02-28T07:47:08;102771.78;;;11.66;38.87
21357;BME280;10836;53.068;18.234;2023-02-28T07:49:36;102774.31;;;10.14;39.84
21357;BME280;10836;53.068;18.234;2023-02-28T07:52:05;102775.66;;;11.41;38.16
21357;BME280;10836;53.068;18.234;2023-02-28T07:54:33;102769.81;;;11.37;39.72
21357;BME280;10836;53.068;18.234;2023-02-28T07:57:00;102773.41;;;12.16;37.44
21357;BME280;10836;53.068;18.234;2023-02-28T07:59:27;102776.44;;;11.48;38.84
21357;BME280;10836;53.068;18.234;2023-02-28T08:01:58;102770.81;;;9.62;41.46
21357;BME280;10836;53.068;18.234;2023-02-28T08:04:25;102765.59;;;8.96;44.90
21357;BME280;10836;53.068;18.234;2023-02-28T08:06:53;102772.28;;;10.02;42.95
21357;BME280;10836;53.068;18.234;2023-02-28T08:09:20;102780.22;;;10.42;42.52
21357;BME280;10836;53.068;18.234;2023-02-28T08:11:47;102776.78;;;10.28;41.89
21357;BME280;10836;53.068;18.234;2023-02-28T08:14:13;102779.50;;;10.28;43.57
21357;BME280;10836;53.068;18.234;2023-02-28T08:16:41;102773.03;;;10.73;41.49
21357;BME280;10836;53.068;18.234;2023-02-28T08:19:09;102767.09;;;10.32;42.55
21357;BME280;10836;53.068;18.234;2023-02-28T08:21:36;102775.53;;;11.54;40.58
21357;BME280;10836;53.068;18.234;2023-02-28T08:24:03;102768.88;;;12.75;38.22
21357;BME280;10836;53.068;18.234;2023-02-28T08:26:30;102768.09;;;13.49;36.58
21357;BME280;10836;53.068;18.234;2023-02-28T08:28:57;102766.00;;;12.58;37.49
21357;BME280;10836;53.068;18.234;2023-02-28T08:31:27;102765.44;;;12.91;36.97
21357;BME280;10836;53.068;18.234;2023-02-28T08:33:54;102778.28;;;12.02;38.33
21357;BME280;10836;53.068;18.234;2023-02-28T08:36:25;102764.78;;;12.42;37.92
21357;BME280;10836;53.068;18.234;2023-02-28T08:38:56;102761.28;;;11.82;40.60
21357;BME280;10836;53.068;18.234;2023-02-28T08:41:23;102756.13;;;13.55;36.13
21357;BME280;10836;53.068;18.234;2023-02-28T08:43:50;102755.41;;;12.96;36.30
21357;BME280;10836;53.068;18.234;2023-02-28T08:46:17;102751.13;;;12.77;37.18
21357;BME280;10836;53.068;18.234;2023-02-28T08:48:44;102757.28;;;11.48;37.93
21357;BME280;10836;53.068;18.234;2023-02-28T08:51:15;102747.25;;;13.37;36.54
21357;BME280;10836;53.068;18.234;2023-02-28T08:53:49;102754.66;;;14.38;34.43
21357;BME280;10836;53.068;18.234;2023-02-28T08:56:16;102748.53;;;15.03;33.31
21357;BME280;10836;53.068;18.234;2023-02-28T08:58:44;102749.28;;;13.06;35.72
21357;BME280;10836;53.068;18.234;2023-02-28T09:01:18;102755.53;;;12.02;37.72
21357;BME280;10836;53.068;18.234;2023-02-28T09:03:46;102744.31;;;13.55;35.20
21357;BME280;10836;53.068;18.234;2023-02-28T09:06:16;102751.22;;;11.27;37.40
21357;BME280;10836;53.068;18.234;2023-02-28T09:08:43;102752.47;;;12.10;38.59
21357;BME280;10836;53.068;18.234;2023-02-28T09:11:12;102750.38;;;13.28;34.37
21357;BME280;10836;53.068;18.234;2023-02-28T09:13:39;102753.09;;;11.63;36.56
21357;BME280;10836;53.068;18.234;2023-02-28T09:16:11;102751.97;;;10.80;39.78
21357;BME280;10836;53.068;18.234;2023-02-28T09:18:38;102738.91;;;13.08;35.43
21357;BME280;10836;53.068;18.234;2023-02-28T09:21:07;102749.28;;;12.36;37.90
21357;BME280;10836;53.068;18.234;2023-02-28T09:23:35;102753.53;;;12.09;36.94
21357;BME280;10836;53.068;18.234;2023-02-28T09:26:05;102753.72;;;13.07;35.54
21357;BME280;10836;53.068;18.234;2023-02-28T09:28:32;102755.16;;;12.98;35.45
21357;BME280;10836;53.068;18.234;2023-02-28T09:30:59;102752.94;;;14.04;33.14
21357;BME280;10836;53.068;18.234;2023-02-28T09:33:26;102754.50;;;15.82;30.65
21357;BME280;10836;53.068;18.234;2023-02-28T09:35:59;102758.34;;;15.81;29.83
21357;BME280;10836;53.068;18.234;2023-02-28T09:38:28;102758.44;;;16.45;28.09
21357;BME280;10836;53.068;18.234;2023-02-28T09:40:59;102756.09;;;13.95;30.48
21357;BME280;10836;53.068;18.234;2023-02-28T09:43:33;102760.34;;;14.48;31.27
21357;BME280;10836;53.068;18.234;2023-02-28T09:46:43;102752.53;;;12.80;31.51
21357;BME280;10836;53.068;18.234;2023-02-28T09:49:17;102757.06;;;12.62;31.67
21357;BME280;10836;53.068;18.234;2023-02-28T09:54:20;102751.56;;;13.73;31.18
21357;BME280;10836;53.068;18.234;2023-02-28T09:57:04;102740.69;;;15.34;28.83
21357;BME280;10836;53.068;18.234;2023-02-28T09:59:51;102750.88;;;12.79;32.61
21357;BME280;10836;53.068;18.234;2023-02-28T10:05:28;102746.72;;;16.01;29.89
21357;BME280;10836;53.068;18.234;2023-02-28T10:08:14;102752.53;;;15.34;29.44
21357;BME280;10836;53.068;18.234;2023-02-28T10:10:45;102754.75;;;16.03;29.17
21357;BME280;10836;53.068;18.234;2023-02-28T10:15:58;102749.97;;;16.25;27.47
21357;BME280;10836;53.068;18.234;2023-02-28T10:18:39;102748.38;;;15.75;29.21
21357;BME280;10836;53.068;18.234;2023-02-28T10:21:34;102746.97;;;15.07;28.60
21357;BME280;10836;53.068;18.234;2023-02-28T10:24:07;102743.19;;;14.58;29.01
21357;BME280;10836;53.068;18.234;2023-02-28T10:26:39;102733.13;;;14.63;28.25
21357;BME280;10836;53.068;18.234;2023-02-28T10:29:09;102725.59;;;13.52;31.48
21357;BME280;10836;53.068;18.234;2023-02-28T10:31:36;102725.25;;;12.96;32.40
21357;BME280;10836;53.068;18.234;2023-02-28T10:34:03;102726.78;;;11.14;34.42
21357;BME280;10836;53.068;18.234;2023-02-28T10:36:32;102727.22;;;11.11;34.23
21357;BME280;10836;53.068;18.234;2023-02-28T10:39:33;102720.34;;;13.50;31.34
21357;BME280;10836;53.068;18.234;2023-02-28T10:42:00;102720.97;;;12.42;32.02
21357;BME280;10836;53.068;18.234;2023-02-28T10:44:27;102723.59;;;11.17;34.42
21357;BME280;10836;53.068;18.234;2023-02-28T10:46:55;102727.59;;;12.23;33.42
21357;BME280;10836;53.068;18.234;2023-02-28T10:49:27;102717.91;;;10.57;35.86
21357;BME280;10836;53.068;18.234;2023-02-28T10:51:57;102710.31;;;9.78;36.78
21357;BME280;10836;53.068;18.234;2023-02-28T10:54:36;102712.38;;;8.87;38.71
21357;BME280;10836;53.068;18.234;2023-02-28T10:59:50;102705.84;;;11.86;33.17
21357;BME280;10836;53.068;18.234;2023-02-28T11:05:00;102694.88;;;10.72;35.92
21357;BME280;10836;53.068;18.234;2023-02-28T11:07:27;102694.63;;;12.64;32.96
21357;BME280;10836;53.068;18.234;2023-02-28T11:10:16;102695.81;;;12.69;31.19
21357;BME280;10836;53.068;18.234;2023-02-28T11:12:45;102702.53;;;13.13;30.31
21357;BME280;10836;53.068;18.234;2023-02-28T11:15:55;102701.25;;;12.22;32.39
21357;BME280;10836;53.068;18.234;2023-02-28T11:20:52;102689.75;;;13.42;31.82
21357;BME280;10836;53.068;18.234;2023-02-28T11:23:21;102697.06;;;13.53;31.14
21357;BME280;10836;53.068;18.234;2023-02-28T11:25:51;102703.47;;;11.90;32.35
21357;BME280;10836;53.068;18.234;2023-02-28T11:28:34;102690.09;;;12.35;31.71
21357;BME280;10836;53.068;18.234;2023-02-28T11:31:06;102694.94;;;14.00;30.76
21357;BME280;10836;53.068;18.234;2023-02-28T11:36:19;102689.19;;;14.69;29.08
21357;BME280;10836;53.068;18.234;2023-02-28T11:38:48;102684.53;;;13.05;31.07
21357;BME280;10836;53.068;18.234;2023-02-28T11:46:52;102676.91;;;16.22;25.53
21357;BME280;10836;53.068;18.234;2023-02-28T11:52:01;102672.53;;;12.94;29.41
21357;BME280;10836;53.068;18.234;2023-02-28T12:00:08;102661.00;;;10.91;32.60
21357;BME280;10836;53.068;18.234;2023-02-28T12:05:30;102657.81;;;13.12;29.54
21357;BME280;10836;53.068;18.234;2023-02-28T12:11:05;102664.47;;;11.76;30.66
21357;BME280;10836;53.068;18.234;2023-02-28T12:19:16;102653.97;;;12.85;29.86
21357;BME280;10836;53.068;18.234;2023-02-28T12:24:37;102640.44;;;12.43;31.63
21357;BME280;10836;53.068;18.234;2023-02-28T12:27:10;102646.63;;;13.02;30.52
21357;BME280;10836;53.068;18.234;2023-02-28T12:29:54;102638.53;;;12.44;30.37
21357;BME280;10836;53.068;18.234;2023-02-28T12:32:31;102633.63;;;12.11;30.68
21357;BME280;10836;53.068;18.234;2023-02-28T12:35:06;102640.16;;;12.80;30.46
21357;BME280;10836;53.068;18.234;2023-02-28T12:37:54;102638.47;;;12.90;30.33
21357;BME280;10836;53.068;18.234;2023-02-28T12:40:28;102639.63;;;14.30;29.32
21357;BME280;10836;53.068;18.234;2023-02-28T12:43:03;102639.13;;;14.33;28.72
21357;BME280;10836;53.068;18.234;2023-02-28T12:45:43;102633.03;;;14.64;27.54
21357;BME280;10836;53.068;18.234;2023-02-28T12:48:15;102628.44;;;13.81;26.86
21357;BME280;10836;53.068;18.234;2023-02-28T12:50:47;102635.56;;;13.99;26.52
21357;BME280;10836;53.068;18.234;2023-02-28T12:58:37;102626.72;;;11.96;29.06
21357;BME280;10836;53.068;18.234;2023-02-28T13:09:38;102597.78;;;12.36;28.63
21357;BME280;10836;53.068;18.234;2023-02-28T13:12:16;102599.69;;;13.39;27.29
21357;BME280;10836;53.068;18.234;2023-02-28T13:14:43;102593.88;;;12.95;27.15
21357;BME280;10836;53.068;18.234;2023-02-28T13:17:13;102587.44;;;12.03;29.47
21357;BME280;10836;53.068;18.234;2023-02-28T13:22:43;102596.94;;;11.88;30.36
21357;BME280;10836;53.068;18.234;2023-02-28T13:27:53;102587.88;;;12.98;29.87
21357;BME280;10836;53.068;18.234;2023-02-28T13:35:46;102582.69;;;13.13;29.03
21357;BME280;10836;53.068;18.234;2023-02-28T13:38:22;102574.16;;;13.72;27.51
21357;BME280;10836;53.068;18.234;2023-02-28T13:40:49;102564.16;;;13.49;26.80
21357;BME280;10836;53.068;18.234;2023-02-28T13:43:17;102566.13;;;11.93;29.36
21357;BME280;10836;53.068;18.234;2023-02-28T13:46:12;102568.84;;;11.81;31.32
21357;BME280;10836;53.068;18.234;2023-02-28T13:48:40;102560.28;;;11.89;31.28
21357;BME280;10836;53.068;18.234;2023-02-28T13:51:49;102561.94;;;12.37;30.92
21357;BME280;10836;53.068;18.234;2023-02-28T13:58:08;102553.78;;;11.72;30.95
21357;BME280;10836;53.068;18.234;2023-02-28T14:00:34;102555.50;;;12.43;29.21
21357;BME280;10836;53.068;18.234;2023-02-28T14:11:42;102533.44;;;11.56;28.46
21357;BME280;10836;53.068;18.234;2023-02-28T14:17:14;102525.72;;;11.65;29.77
21357;BME280;10836;53.068;18.234;2023-02-28T14:19:45;102527.63;;;12.23;31.19
21357;BME280;10836;53.068;18.234;2023-02-28T14:22:43;102534.00;;;12.12;30.98
21357;BME280;10836;53.068;18.234;2023-02-28T14:25:30;102530.34;;;11.53;32.00
21357;BME280;10836;53.068;18.234;2023-02-28T14:31:00;102531.72;;;11.32;32.37
21357;BME280;10836;53.068;18.234;2023-02-28T14:36:39;102515.66;;;12.01;31.91
21357;BME280;10836;53.068;18.234;2023-02-28T14:39:19;102498.50;;;11.05;32.65
21357;BME280;10836;53.068;18.234;2023-02-28T14:41:46;102509.53;;;10.69;33.79
21357;BME280;10836;53.068;18.234;2023-02-28T14:46:44;102509.53;;;10.50;34.76
21357;BME280;10836;53.068;18.234;2023-02-28T14:49:29;102506.59;;;9.47;36.34
21357;BME280;10836;53.068;18.234;2023-02-28T14:54:39;102511.22;;;8.84;37.13
21357;BME280;10836;53.068;18.234;2023-02-28T14:57:21;102520.31;;;9.09;35.79
21357;BME280;10836;53.068;18.234;2023-02-28T14:59:58;102514.84;;;7.93;38.80
21357;BME280;10836;53.068;18.234;2023-02-28T15:02:28;102516.56;;;7.28;38.85
21357;BME280;10836;53.068;18.234;2023-02-28T15:04:59;102526.00;;;6.58;39.89